Wetterdaten: Woche 23.03.26 - 29.03.26 (KW13)
Datum Zeit Temp. Aussen Temp. o. S. Temp +5cm Feuchte Auss Luftdruck Regen Sonnenschein Solar Windböen Empfang
23.03.2026 00:00 5,6 °C 4,7 °C 1,5 °C 82 % 1015,8 hPa 0,0 l/m² 0,00 h 0 W/m² 0,0 km/h (0 Bft) 97,27 %
23.03.2026 01:00 5,2 °C 3,8 °C 0,9 °C 83 % 1016,0 hPa 0,0 l/m² 0,00 h 0 W/m² 0,1 km/h (0 Bft) 97,14 %
23.03.2026 02:00 4,7 °C 4,1 °C 1,0 °C 84 % 1016,1 hPa 0,0 l/m² 0,00 h 0 W/m² 0,0 km/h (0 Bft) 95,67 %
23.03.2026 03:00 4,8 °C 4,3 °C 1,2 °C 87 % 1016,2 hPa 0,0 l/m² 0,00 h 0 W/m² 0,2 km/h (0 Bft) 94,26 %
23.03.2026 04:00 4,7 °C 3,4 °C 0,4 °C 87 % 1016,5 hPa 0,0 l/m² 0,00 h 0 W/m² 0,3 km/h (0 Bft) 96,56 %
23.03.2026 05:00 4,3 °C 3,8 °C 0,7 °C 88 % 1016,9 hPa 0,0 l/m² 0,00 h 0 W/m² 0,6 km/h (0 Bft) 97,16 %
23.03.2026 06:00 4,6 °C 3,8 °C 0,8 °C 89 % 1017,4 hPa 0,0 l/m² 0,00 h 9 W/m² 0,6 km/h (0 Bft) 98,41 %
23.03.2026 07:00 4,3 °C 3,9 °C 0,4 °C 89 % 1018,1 hPa 0,0 l/m² 0,00 h 40 W/m² 0,2 km/h (0 Bft) 95,55 %
23.03.2026 08:00 5,3 °C 7,0 °C 2,5 °C 91 % 1018,6 hPa 0,0 l/m² 0,13 h 93 W/m² 0,3 km/h (0 Bft) 98,34 %
23.03.2026 09:00 9,1 °C 16,6 °C 6,6 °C 82 % 1019,1 hPa 0,0 l/m² 0,93 h 323 W/m² 1,7 km/h (1 Bft) 98,13 %
23.03.2026 10:00 12,2 °C 18,6 °C 11,4 °C 70 % 1019,8 hPa 0,0 l/m² 0,93 h 441 W/m² 5,2 km/h (1 Bft) 96,81 %
23.03.2026 11:00 14,6 °C 24,5 °C 18,2 °C 62 % 1020,2 hPa 0,0 l/m² 1,00 h 630 W/m² 7,1 km/h (2 Bft) 99,01 %
23.03.2026 12:00 16,9 °C 24,6 °C 15,0 °C 56 % 1020,0 hPa 0,0 l/m² 0,98 h 589 W/m² 8,3 km/h (2 Bft) 97,02 %
23.03.2026 13:00 17,7 °C 23,4 °C 13,2 °C 51 % 1019,5 hPa 0,0 l/m² 1,00 h 529 W/m² 9,0 km/h (2 Bft) 97,53 %
23.03.2026 14:00 18,1 °C 22,2 °C 13,4 °C 49 % 1019,3 hPa 0,0 l/m² 1,00 h 447 W/m² 9,9 km/h (2 Bft) 96,93 %
23.03.2026 15:00 17,8 °C 19,3 °C 12,9 °C 48 % 1019,2 hPa 0,0 l/m² 1,00 h 283 W/m² 7,5 km/h (2 Bft) 97,51 %
23.03.2026 16:00 17,3 °C 18,7 °C 12,5 °C 48 % 1019,4 hPa 0,0 l/m² 1,00 h 239 W/m² 7,5 km/h (2 Bft) 98,76 %
23.03.2026 17:00 16,5 °C 16,1 °C 11,2 °C 52 % 1019,9 hPa 0,0 l/m² 0,57 h 99 W/m² 4,6 km/h (1 Bft) 95,10 %
23.03.2026 18:00 15,4 °C 13,1 °C 8,9 °C 56 % 1020,3 hPa 0,0 l/m² 0,00 h 28 W/m² 1,0 km/h (0 Bft) 98,99 %
23.03.2026 19:00 13,3 °C 10,0 °C 6,2 °C 62 % 1020,6 hPa 0,0 l/m² 0,00 h 0 W/m² 0,0 km/h (0 Bft) 99,12 %
23.03.2026 20:00 10,9 °C 8,3 °C 4,6 °C 70 % 1021,1 hPa 0,0 l/m² 0,00 h 0 W/m² 0,3 km/h (0 Bft) 98,83 %
23.03.2026 21:00 9,3 °C 7,5 °C 3,9 °C 72 % 1021,3 hPa 0,0 l/m² 0,00 h 0 W/m² 0,0 km/h (0 Bft) 98,68 %
23.03.2026 22:00 8,2 °C 6,7 °C 3,0 °C 75 % 1021,5 hPa 0,0 l/m² 0,00 h 0 W/m² 0,0 km/h (0 Bft) 98,65 %
23.03.2026 23:00 7,4 °C 5,9 °C 2,3 °C 78 % 1021,2 hPa 0,0 l/m² 0,00 h 0 W/m² 0,0 km/h (0 Bft) 97,69 %
24.03.2026 00:00 6,6 °C 5,3 °C 1,7 °C 81 % 1021,0 hPa 0,0 l/m² 0,00 h 0 W/m² 0,0 km/h (0 Bft) 96,94 %
24.03.2026 01:00 6,0 °C 4,6 °C 1,2 °C 83 % 1020,9 hPa 0,0 l/m² 0,00 h 0 W/m² 0,0 km/h (0 Bft) 96,09 %
24.03.2026 02:00 5,6 °C 4,6 °C 1,1 °C 85 % 1020,8 hPa 0,0 l/m² 0,00 h 0 W/m² 0,7 km/h (0 Bft) 97,66 %
24.03.2026 03:00 5,2 °C 4,2 °C 0,8 °C 87 % 1020,7 hPa 0,0 l/m² 0,00 h 0 W/m² 0,0 km/h (0 Bft) 98,57 %
24.03.2026 04:00 5,6 °C 5,5 °C 2,4 °C 89 % 1020,4 hPa 0,0 l/m² 0,00 h 0 W/m² 4,5 km/h (1 Bft) 96,09 %
24.03.2026 05:00 6,1 °C 5,6 °C 2,2 °C 88 % 1020,0 hPa 0,0 l/m² 0,00 h 0 W/m² 5,3 km/h (1 Bft) 96,25 %
24.03.2026 06:00 6,2 °C 5,6 °C 2,2 °C 87 % 1019,8 hPa 0,0 l/m² 0,00 h 8 W/m² 5,7 km/h (1 Bft) 95,49 %
24.03.2026 07:00 6,5 °C 6,3 °C 2,9 °C 87 % 1019,7 hPa 0,0 l/m² 0,00 h 35 W/m² 6,5 km/h (2 Bft) 98,86 %
24.03.2026 08:00 7,3 °C 7,6 °C 3,9 °C 86 % 1019,6 hPa 0,0 l/m² 0,00 h 78 W/m² 6,4 km/h (2 Bft) 95,76 %
24.03.2026 09:00 9,2 °C 10,9 °C 6,3 °C 81 % 1019,5 hPa 0,0 l/m² 0,37 h 204 W/m² 11,5 km/h (2 Bft) 96,80 %
24.03.2026 10:00 12,8 °C 15,3 °C 10,4 °C 69 % 1019,2 hPa 0,0 l/m² 1,00 h 360 W/m² 22,1 km/h (4 Bft) 96,78 %
24.03.2026 11:00 14,5 °C 17,7 °C 13,1 °C 64 % 1018,7 hPa 0,0 l/m² 0,97 h 464 W/m² 26,3 km/h (4 Bft) 99,16 %
24.03.2026 12:00 15,6 °C 19,9 °C 13,3 °C 57 % 1017,9 hPa 0,0 l/m² 1,00 h 529 W/m² 26,5 km/h (4 Bft) 96,76 %
24.03.2026 13:00 17,0 °C 22,3 °C 12,8 °C 52 % 1017,2 hPa 0,0 l/m² 1,00 h 627 W/m² 28,9 km/h (5 Bft) 96,51 %
24.03.2026 14:00 17,2 °C 20,1 °C 13,0 °C 53 % 1016,2 hPa 0,0 l/m² 0,95 h 476 W/m² 31,9 km/h (5 Bft) 99,75 %
24.03.2026 15:00 16,9 °C 17,2 °C 12,9 °C 52 % 1015,3 hPa 0,0 l/m² 0,42 h 211 W/m² 29,0 km/h (5 Bft) 98,39 %
24.03.2026 16:00 16,6 °C 16,2 °C 12,2 °C 53 % 1014,4 hPa 0,0 l/m² 0,00 h 113 W/m² 31,4 km/h (5 Bft) 98,17 %
24.03.2026 17:00 16,2 °C 15,4 °C 11,5 °C 55 % 1013,5 hPa 0,0 l/m² 0,00 h 52 W/m² 21,7 km/h (4 Bft) 99,93 %
24.03.2026 18:00 15,6 °C 14,5 °C 10,8 °C 57 % 1012,5 hPa 0,0 l/m² 0,00 h 13 W/m² 22,3 km/h (4 Bft) 98,90 %
24.03.2026 19:00 14,8 °C 13,8 °C 10,1 °C 60 % 1011,9 hPa 0,0 l/m² 0,00 h 0 W/m² 20,6 km/h (4 Bft) 99,34 %
24.03.2026 20:00 14,3 °C 13,3 °C 9,4 °C 62 % 1011,2 hPa 0,0 l/m² 0,00 h 0 W/m² 25,8 km/h (4 Bft) 99,85 %
24.03.2026 21:00 13,7 °C 12,7 °C 8,9 °C 65 % 1009,8 hPa 0,0 l/m² 0,00 h 0 W/m² 29,2 km/h (5 Bft) 99,05 %
24.03.2026 22:00 12,9 °C 11,9 °C 8,3 °C 67 % 1008,5 hPa 0,0 l/m² 0,00 h 0 W/m² 24,4 km/h (4 Bft) 98,83 %
24.03.2026 23:00 13,1 °C 12,2 °C 8,3 °C 67 % 1006,8 hPa 0,0 l/m² 0,00 h 0 W/m² 33,3 km/h (5 Bft) 100,00 %
25.03.2026 00:00 13,1 °C 12,2 °C 8,3 °C 66 % 1005,5 hPa 0,0 l/m² 0,00 h 0 W/m² 40,0 km/h (6 Bft) 96,93 %
25.03.2026 01:00 13,0 °C 12,2 °C 8,3 °C 66 % 1004,3 hPa 0,0 l/m² 0,00 h 0 W/m² 37,5 km/h (5 Bft) 99,78 %
25.03.2026 02:00 12,9 °C 12,2 °C 8,3 °C 66 % 1002,7 hPa 0,0 l/m² 0,00 h 0 W/m² 40,0 km/h (6 Bft) 100,00 %
25.03.2026 03:00 12,4 °C 11,7 °C 7,8 °C 69 % 1001,2 hPa 0,0 l/m² 0,00 h 0 W/m² 44,5 km/h (6 Bft) 96,13 %
25.03.2026 04:00 11,4 °C 10,5 °C 6,7 °C 76 % 1000,5 hPa 0,0 l/m² 0,00 h 0 W/m² 41,3 km/h (6 Bft) 99,20 %
25.03.2026 05:00 10,4 °C 9,6 °C 6,0 °C 78 % 1000,3 hPa 0,0 l/m² 0,00 h 0 W/m² 36,7 km/h (5 Bft) 99,71 %
25.03.2026 06:00 9,9 °C 9,2 °C 5,3 °C 75 % 1000,2 hPa 0,0 l/m² 0,00 h 13 W/m² 31,6 km/h (5 Bft) 98,32 %
25.03.2026 07:00 9,3 °C 8,7 °C 5,1 °C 74 % 1000,7 hPa 0,0 l/m² 0,08 h 50 W/m² 25,7 km/h (4 Bft) 99,78 %
25.03.2026 08:00 9,1 °C 8,9 °C 5,0 °C 73 % 1000,7 hPa 0,0 l/m² 0,00 h 88 W/m² 29,5 km/h (5 Bft) 99,71 %
25.03.2026 09:00 9,4 °C 10,2 °C 5,9 °C 75 % 1001,0 hPa 0,0 l/m² 0,25 h 155 W/m² 28,4 km/h (4 Bft) 97,44 %
25.03.2026 10:00 9,1 °C 9,2 °C 5,5 °C 78 % 1001,8 hPa 0,0 l/m² 0,17 h 146 W/m² 31,1 km/h (5 Bft) 98,76 %
25.03.2026 11:00 5,7 °C 5,2 °C 1,2 °C 88 % 1003,3 hPa 1,4 l/m² 0,00 h 109 W/m² 28,7 km/h (4 Bft) 99,85 %
25.03.2026 12:00 5,6 °C 6,0 °C 2,1 °C 92 % 1003,7 hPa 0,2 l/m² 0,00 h 160 W/m² 11,5 km/h (2 Bft) 97,44 %
25.03.2026 13:00 6,9 °C 7,9 °C 3,7 °C 91 % 1003,7 hPa 0,0 l/m² 0,17 h 222 W/m² 18,5 km/h (3 Bft) 99,85 %
25.03.2026 14:00 8,5 °C 9,5 °C 4,9 °C 82 % 1004,0 hPa 0,0 l/m² 0,50 h 217 W/m² 20,6 km/h (4 Bft) 99,56 %
25.03.2026 15:00 8,1 °C 9,3 °C 4,1 °C 85 % 1004,4 hPa 0,0 l/m² 0,42 h 258 W/m² 16,4 km/h (3 Bft) 93,86 %
25.03.2026 16:00 8,8 °C 10,6 °C 4,9 °C 77 % 1004,6 hPa 0,0 l/m² 0,67 h 277 W/m² 23,3 km/h (4 Bft) 99,78 %
25.03.2026 17:00 9,0 °C 8,8 °C 4,9 °C 75 % 1005,4 hPa 0,2 l/m² 0,33 h 103 W/m² 18,8 km/h (3 Bft) 99,71 %
25.03.2026 18:00 7,9 °C 7,1 °C 3,6 °C 74 % 1006,3 hPa 0,0 l/m² 0,00 h 14 W/m² 17,4 km/h (3 Bft) 98,90 %
25.03.2026 19:00 7,2 °C 6,5 °C 3,1 °C 76 % 1007,2 hPa 0,0 l/m² 0,00 h 0 W/m² 15,8 km/h (3 Bft) 99,64 %
25.03.2026 20:00 6,0 °C 5,3 °C 2,0 °C 80 % 1008,4 hPa 0,0 l/m² 0,00 h 0 W/m² 19,6 km/h (3 Bft) 97,66 %
25.03.2026 21:00 5,1 °C 4,2 °C 1,1 °C 85 % 1008,9 hPa 0,0 l/m² 0,00 h 0 W/m² 13,4 km/h (3 Bft) 97,88 %
25.03.2026 22:00 4,3 °C 3,5 °C 0,6 °C 89 % 1009,3 hPa 0,0 l/m² 0,00 h 0 W/m² 10,7 km/h (2 Bft) 99,85 %
25.03.2026 23:00 4,3 °C 3,5 °C 0,6 °C 89 % 1009,7 hPa 0,0 l/m² 0,00 h 0 W/m² 8,8 km/h (2 Bft) 99,56 %
26.03.2026 00:00 4,2 °C 3,7 °C 0,6 °C 89 % 1010,4 hPa 0,0 l/m² 0,00 h 0 W/m² 15,3 km/h (3 Bft) 99,05 %
26.03.2026 01:00 3,9 °C 3,3 °C 0,0 °C 90 % 1011,1 hPa 0,0 l/m² 0,00 h 0 W/m² 11,8 km/h (2 Bft) 99,64 %
26.03.2026 02:00 3,5 °C 2,8 °C -0,4 °C 91 % 1011,6 hPa 0,0 l/m² 0,00 h 0 W/m² 10,8 km/h (2 Bft) 99,34 %
26.03.2026 03:00 3,2 °C 2,7 °C -0,6 °C 92 % 1012,1 hPa 0,0 l/m² 0,00 h 0 W/m² 13,2 km/h (3 Bft) 97,81 %
26.03.2026 04:00 2,6 °C 1,8 °C -1,2 °C 93 % 1012,5 hPa 0,0 l/m² 0,00 h 0 W/m² 9,9 km/h (2 Bft) 98,68 %
26.03.2026 05:00 2,2 °C 1,5 °C -1,7 °C 93 % 1013,0 hPa 0,0 l/m² 0,00 h 0 W/m² 8,6 km/h (2 Bft) 99,85 %
26.03.2026 06:00 1,9 °C 1,1 °C -1,7 °C 93 % 1013,7 hPa 0,0 l/m² 0,00 h 8 W/m² 9,7 km/h (2 Bft) 99,49 %
26.03.2026 07:00 2,3 °C 2,0 °C -1,4 °C 94 % 1014,4 hPa 0,0 l/m² 0,00 h 28 W/m² 13,4 km/h (3 Bft) 96,71 %
26.03.2026 08:00 3,5 °C 3,8 °C -0,2 °C 91 % 1015,2 hPa 0,0 l/m² 0,08 h 93 W/m² 20,4 km/h (4 Bft) 97,22 %
26.03.2026 09:00 5,4 °C 8,1 °C 2,8 °C 82 % 1016,0 hPa 0,0 l/m² 0,58 h 253 W/m² 24,4 km/h (4 Bft) 99,56 %
26.03.2026 10:00 6,0 °C 8,9 °C 4,0 °C 79 % 1016,4 hPa 0,0 l/m² 0,58 h 361 W/m² 29,0 km/h (5 Bft) 98,03 %
26.03.2026 11:00 6,0 °C 9,2 °C 4,1 °C 79 % 1017,0 hPa 0,0 l/m² 0,52 h 350 W/m² 21,6 km/h (4 Bft) 99,83 %
26.03.2026 12:00 8,1 °C 16,9 °C 7,2 °C 75 % 1017,1 hPa 0,0 l/m² 0,90 h 667 W/m² 19,8 km/h (4 Bft) 98,09 %
26.03.2026 13:00 8,7 °C 13,8 °C 5,0 °C 67 % 1017,4 hPa 0,0 l/m² 0,67 h 550 W/m² 26,7 km/h (4 Bft) 95,68 %
26.03.2026 14:00 8,2 °C 12,0 °C 4,2 °C 68 % 1017,9 hPa 0,0 l/m² 0,77 h 469 W/m² 30,1 km/h (5 Bft) 98,07 %
26.03.2026 15:00 7,1 °C 11,7 °C 3,6 °C 79 % 1018,0 hPa 0,0 l/m² 0,87 h 437 W/m² 13,8 km/h (3 Bft) 98,47 %
26.03.2026 16:00 7,3 °C 10,1 °C 3,3 °C 71 % 1017,9 hPa 0,0 l/m² 0,83 h 303 W/m² 21,2 km/h (4 Bft) 95,22 %
26.03.2026 17:00 7,4 °C 7,9 °C 3,7 °C 62 % 1018,4 hPa 0,0 l/m² 0,67 h 141 W/m² 27,0 km/h (4 Bft) 98,49 %
26.03.2026 18:00 5,8 °C 4,8 °C 1,4 °C 65 % 1019,1 hPa 0,0 l/m² 0,00 h 15 W/m² 19,5 km/h (3 Bft) 98,56 %
26.03.2026 19:00 4,1 °C 2,9 °C -0,3 °C 75 % 1020,0 hPa 0,0 l/m² 0,00 h 0 W/m² 10,6 km/h (2 Bft) 97,32 %
26.03.2026 20:00 2,9 °C 1,9 °C -1,0 °C 81 % 1020,8 hPa 0,0 l/m² 0,00 h 0 W/m² 7,3 km/h (2 Bft) 95,29 %
26.03.2026 21:00 2,3 °C 1,3 °C -1,8 °C 84 % 1021,3 hPa 0,0 l/m² 0,00 h 0 W/m² 4,5 km/h (1 Bft) 95,82 %
26.03.2026 22:00 2,2 °C 1,5 °C -1,5 °C 87 % 1021,8 hPa 0,0 l/m² 0,00 h 0 W/m² 0,9 km/h (0 Bft) 98,58 %
26.03.2026 23:00 2,3 °C 1,4 °C -1,6 °C 88 % 1021,9 hPa 0,0 l/m² 0,00 h 0 W/m² 3,1 km/h (1 Bft) 95,58 %
27.03.2026 00:00 1,5 °C 0,7 °C -2,3 °C 89 % 1022,1 hPa 0,0 l/m² 0,00 h 0 W/m² 3,4 km/h (1 Bft) 94,09 %
27.03.2026 01:00 1,2 °C 0,4 °C -2,5 °C 90 % 1022,5 hPa 0,0 l/m² 0,00 h 0 W/m² 4,0 km/h (1 Bft) 97,63 %
27.03.2026 02:00 1,0 °C -0,0 °C -2,9 °C 91 % 1022,6 hPa 0,0 l/m² 0,00 h 0 W/m² 3,5 km/h (1 Bft) 96,65 %
27.03.2026 03:00 0,4 °C -0,6 °C -3,8 °C 92 % 1022,6 hPa 0,0 l/m² 0,00 h 0 W/m² 1,2 km/h (1 Bft) 97,06 %
27.03.2026 04:00 0,1 °C -0,9 °C -3,9 °C 93 % 1023,0 hPa 0,0 l/m² 0,00 h 0 W/m² 1,5 km/h (1 Bft) 94,87 %
27.03.2026 05:00 -0,2 °C -1,2 °C -4,1 °C 93 % 1023,4 hPa 0,0 l/m² 0,00 h 0 W/m² 0,5 km/h (0 Bft) 97,37 %
27.03.2026 06:00 -0,4 °C -1,4 °C -4,2 °C 94 % 1023,9 hPa 0,0 l/m² 0,00 h 12 W/m² 1,3 km/h (1 Bft) 99,01 %
27.03.2026 07:00 -0,2 °C -0,5 °C -3,5 °C 94 % 1024,3 hPa 0,0 l/m² 0,00 h 31 W/m² 2,2 km/h (1 Bft) 97,21 %
27.03.2026 08:00 1,2 °C 2,2 °C -1,9 °C 95 % 1024,7 hPa 0,0 l/m² 0,17 h 110 W/m² 5,8 km/h (2 Bft) 98,32 %
27.03.2026 09:00 4,1 °C 11,5 °C 3,4 °C 93 % 1024,9 hPa 0,0 l/m² 0,90 h 329 W/m² 7,0 km/h (2 Bft) 96,72 %
27.03.2026 10:00 6,4 °C 10,8 °C 5,9 °C 78 % 1025,0 hPa 0,0 l/m² 0,67 h 386 W/m² 11,6 km/h (2 Bft) 97,98 %
27.03.2026 11:00 8,0 °C 15,9 °C 11,2 °C 67 % 1024,8 hPa 0,0 l/m² 0,90 h 672 W/m² 15,0 km/h (3 Bft) 98,33 %
27.03.2026 12:00 9,7 °C 18,5 °C 9,9 °C 60 % 1024,3 hPa 0,0 l/m² 0,93 h 710 W/m² 15,0 km/h (3 Bft) 97,43 %
27.03.2026 13:00 11,0 °C 18,8 °C 7,3 °C 56 % 1023,7 hPa 0,0 l/m² 0,97 h 712 W/m² 16,7 km/h (3 Bft) 97,16 %
27.03.2026 14:00 11,7 °C 17,5 °C 7,9 °C 53 % 1023,2 hPa 0,0 l/m² 0,87 h 534 W/m² 14,7 km/h (3 Bft) 97,39 %
27.03.2026 15:00 10,5 °C 12,0 °C 7,2 °C 55 % 1022,8 hPa 0,0 l/m² 1,00 h 283 W/m² 12,0 km/h (2 Bft) 96,47 %
27.03.2026 16:00 9,9 °C 10,6 °C 6,6 °C 57 % 1022,3 hPa 0,0 l/m² 0,77 h 195 W/m² 12,7 km/h (3 Bft) 98,34 %
27.03.2026 17:00 9,5 °C 9,4 °C 5,9 °C 58 % 1022,0 hPa 0,0 l/m² 0,10 h 95 W/m² 14,1 km/h (3 Bft) 98,17 %
27.03.2026 18:00 9,0 °C 8,4 °C 5,1 °C 59 % 1021,9 hPa 0,0 l/m² 0,00 h 18 W/m² 12,8 km/h (3 Bft) 95,93 %
27.03.2026 19:00 8,6 °C 7,8 °C 4,6 °C 61 % 1021,7 hPa 0,0 l/m² 0,00 h 0 W/m² 5,4 km/h (1 Bft) 97,59 %
27.03.2026 20:00 8,3 °C 7,4 °C 4,3 °C 64 % 1021,4 hPa 0,0 l/m² 0,00 h 0 W/m² 7,7 km/h (2 Bft) 96,35 %
27.03.2026 21:00 8,0 °C 7,2 °C 3,9 °C 66 % 1021,1 hPa 0,0 l/m² 0,00 h 0 W/m² 10,7 km/h (2 Bft) 97,86 %
27.03.2026 22:00 7,9 °C 7,2 °C 3,8 °C 66 % 1020,6 hPa 0,0 l/m² 0,00 h 0 W/m² 10,2 km/h (2 Bft) 96,67 %
27.03.2026 23:00 7,6 °C 6,8 °C 3,0 °C 72 % 1020,0 hPa 0,0 l/m² 0,00 h 0 W/m² 11,3 km/h (2 Bft) 97,19 %
28.03.2026 00:00 7,1 °C 6,2 °C 1,8 °C 78 % 1019,7 hPa 0,5 l/m² 0,00 h 0 W/m² 11,3 km/h (2 Bft) 97,70 %
28.03.2026 01:00 6,5 °C 5,6 °C 1,1 °C 83 % 1019,1 hPa 0,2 l/m² 0,00 h 0 W/m² 13,2 km/h (3 Bft) 94,06 %
28.03.2026 02:00 6,1 °C 5,3 °C 1,1 °C 86 % 1018,5 hPa 0,5 l/m² 0,00 h 0 W/m² 11,8 km/h (2 Bft) 97,11 %
28.03.2026 03:00 5,8 °C 4,8 °C 1,1 °C 90 % 1017,8 hPa 2,2 l/m² 0,00 h 0 W/m² 10,4 km/h (2 Bft) 97,64 %
28.03.2026 04:00 5,5 °C 4,4 °C 1,1 °C 93 % 1017,4 hPa 2,2 l/m² 0,00 h 0 W/m² 7,8 km/h (2 Bft) 97,11 %
28.03.2026 05:00 5,4 °C 4,4 °C 1,1 °C 95 % 1017,2 hPa 1,2 l/m² 0,00 h 0 W/m² 8,2 km/h (2 Bft) 95,53 %
28.03.2026 06:00 5,4 °C 4,5 °C 1,1 °C 96 % 1017,2 hPa 1,4 l/m² 0,00 h 7 W/m² 8,7 km/h (2 Bft) 97,71 %
28.03.2026 07:00 5,6 °C 5,0 °C 1,3 °C 96 % 1017,5 hPa 1,9 l/m² 0,00 h 16 W/m² 6,7 km/h (2 Bft) 96,91 %
28.03.2026 08:00 6,0 °C 5,5 °C 1,7 °C 97 % 1017,8 hPa 1,9 l/m² 0,00 h 39 W/m² 5,6 km/h (1 Bft) 97,34 %
28.03.2026 09:00 6,3 °C 5,9 °C 2,2 °C 97 % 1018,1 hPa 2,4 l/m² 0,00 h 49 W/m² 6,1 km/h (2 Bft) 97,99 %
28.03.2026 10:00 6,8 °C 6,5 °C 2,5 °C 98 % 1018,5 hPa 1,7 l/m² 0,00 h 65 W/m² 11,4 km/h (2 Bft) 97,87 %
28.03.2026 11:00 6,7 °C 7,3 °C 2,3 °C 98 % 1019,0 hPa 0,0 l/m² 0,00 h 182 W/m² 26,5 km/h (4 Bft) 96,19 %
28.03.2026 12:00 7,5 °C 9,0 °C 2,9 °C 95 % 1019,5 hPa 0,0 l/m² 0,00 h 228 W/m² 21,3 km/h (4 Bft) 98,61 %
28.03.2026 13:00 8,9 °C 13,1 °C 3,9 °C 85 % 1019,6 hPa 0,2 l/m² 0,37 h 370 W/m² 17,4 km/h (3 Bft) 97,47 %
28.03.2026 14:00 9,1 °C 11,3 °C 5,4 °C 80 % 1019,7 hPa 0,0 l/m² 0,63 h 317 W/m² 20,8 km/h (4 Bft) 95,17 %
28.03.2026 15:00 10,8 °C 14,2 °C 7,2 °C 65 % 1019,8 hPa 0,0 l/m² 0,93 h 446 W/m² 26,8 km/h (4 Bft) 98,73 %
28.03.2026 16:00 10,6 °C 12,9 °C 6,2 °C 59 % 1020,2 hPa 0,0 l/m² 0,77 h 294 W/m² 29,9 km/h (5 Bft) 98,58 %
28.03.2026 17:00 9,4 °C 9,4 °C 5,2 °C 63 % 1021,0 hPa 0,0 l/m² 0,67 h 118 W/m² 26,5 km/h (4 Bft) 96,43 %
28.03.2026 18:00 8,0 °C 7,1 °C 3,5 °C 68 % 1021,9 hPa 0,0 l/m² 0,10 h 25 W/m² 16,3 km/h (3 Bft) 98,15 %
28.03.2026 19:00 6,5 °C 5,3 °C 1,9 °C 74 % 1023,0 hPa 0,0 l/m² 0,00 h 0 W/m² 7,1 km/h (2 Bft) 95,38 %
28.03.2026 20:00 5,3 °C 3,9 °C 0,6 °C 77 % 1023,9 hPa 0,0 l/m² 0,00 h 0 W/m² 0,7 km/h (0 Bft) 95,14 %
28.03.2026 21:00 4,4 °C 3,1 °C -0,2 °C 80 % 1024,4 hPa 0,0 l/m² 0,00 h 0 W/m² 3,3 km/h (1 Bft) 98,49 %
28.03.2026 22:00 4,2 °C 3,2 °C -0,1 °C 84 % 1025,0 hPa 0,0 l/m² 0,00 h 0 W/m² 2,0 km/h (1 Bft) 97,29 %
28.03.2026 23:00 4,3 °C 3,8 °C 0,4 °C 88 % 1025,4 hPa 0,0 l/m² 0,00 h 0 W/m² 3,3 km/h (1 Bft) 96,37 %
29.03.2026 00:00 4,9 °C 4,0 °C 0,7 °C 91 % 1025,8 hPa 0,0 l/m² 0,00 h 0 W/m² 5,4 km/h (1 Bft) 95,47 %
29.03.2026 01:00 4,7 °C 3,9 °C 0,6 °C 93 % 1026,4 hPa 0,0 l/m² 0,00 h 0 W/m² 5,9 km/h (2 Bft) 99,48 %
29.03.2026 03:00 4,5 °C 3,7 °C 0,5 °C 94 % 1026,6 hPa 0,0 l/m² 0,00 h 0 W/m² 4,0 km/h (1 Bft) 93,18 %
29.03.2026 04:00 4,0 °C 3,3 °C 0,0 °C 94 % 1027,0 hPa 0,0 l/m² 0,00 h 0 W/m² 3,9 km/h (1 Bft) 97,57 %
29.03.2026 05:00 3,6 °C 2,8 °C -0,5 °C 94 % 1027,5 hPa 0,0 l/m² 0,00 h 0 W/m² 5,3 km/h (1 Bft) 98,36 %
29.03.2026 06:00 3,1 °C 2,1 °C -1,1 °C 95 % 1028,0 hPa 0,0 l/m² 0,00 h 0 W/m² 2,8 km/h (1 Bft) 97,23 %
29.03.2026 07:00 2,5 °C 1,6 °C -1,7 °C 95 % 1028,7 hPa 0,0 l/m² 0,00 h 12 W/m² 1,8 km/h (1 Bft) 96,94 %
29.03.2026 08:00 2,8 °C 2,5 °C -1,0 °C 96 % 1029,3 hPa 0,0 l/m² 0,00 h 35 W/m² 4,3 km/h (1 Bft) 96,98 %
29.03.2026 09:00 4,1 °C 5,1 °C 0,6 °C 97 % 1029,8 hPa 0,0 l/m² 0,30 h 140 W/m² 7,6 km/h (2 Bft) 99,13 %
29.03.2026 10:00 7,0 °C 14,9 °C 6,6 °C 93 % 1030,0 hPa 0,0 l/m² 0,87 h 347 W/m² 8,3 km/h (2 Bft) 96,89 %
29.03.2026 11:00 9,3 °C 15,0 °C 8,5 °C 75 % 1029,8 hPa 0,0 l/m² 0,60 h 401 W/m² 8,0 km/h (2 Bft) 99,42 %
29.03.2026 12:00 10,2 °C 15,6 °C 10,7 °C 64 % 1029,7 hPa 0,0 l/m² 0,50 h 445 W/m² 10,0 km/h (2 Bft) 97,45 %
29.03.2026 13:00 11,1 °C 17,4 °C 9,7 °C 59 % 1029,5 hPa 0,0 l/m² 0,53 h 469 W/m² 12,2 km/h (3 Bft) 98,45 %
29.03.2026 14:00 11,9 °C 16,0 °C 8,0 °C 56 % 1028,7 hPa 0,0 l/m² 0,57 h 450 W/m² 10,9 km/h (2 Bft) 98,11 %
29.03.2026 15:00 11,4 °C 13,8 °C 8,0 °C 56 % 1028,1 hPa 0,0 l/m² 0,70 h 347 W/m² 15,4 km/h (3 Bft) 95,15 %
29.03.2026 16:00 11,1 °C 11,8 °C 7,6 °C 58 % 1027,1 hPa 0,0 l/m² 0,27 h 234 W/m² 15,8 km/h (3 Bft) 97,36 %
29.03.2026 17:00 10,4 °C 10,2 °C 6,6 °C 59 % 1026,2 hPa 0,0 l/m² 0,00 h 118 W/m² 17,7 km/h (3 Bft) 98,67 %
29.03.2026 18:00 9,9 °C 9,4 °C 5,8 °C 61 % 1025,2 hPa 0,0 l/m² 0,00 h 63 W/m² 23,7 km/h (4 Bft) 95,87 %
29.03.2026 19:00 9,4 °C 8,6 °C 5,1 °C 63 % 1024,5 hPa 0,0 l/m² 0,00 h 26 W/m² 18,1 km/h (3 Bft) 98,39 %
29.03.2026 20:00 8,9 °C 8,0 °C 4,4 °C 65 % 1023,8 hPa 0,0 l/m² 0,00 h 0 W/m² 16,2 km/h (3 Bft) 98,18 %
29.03.2026 21:00 8,8 °C 7,8 °C 4,4 °C 67 % 1022,9 hPa 0,0 l/m² 0,00 h 0 W/m² 22,5 km/h (4 Bft) 95,67 %
29.03.2026 22:00 7,9 °C 6,8 °C 2,7 °C 74 % 1021,8 hPa 0,0 l/m² 0,00 h 0 W/m² 25,1 km/h (4 Bft) 97,46 %
29.03.2026 23:00 7,2 °C 6,3 °C 2,3 °C 80 % 1020,3 hPa 0,0 l/m² 0,00 h 0 W/m² 29,3 km/h (5 Bft) 97,73 %
Min-Datum _ 27.03.26 27.03.26 27.03.26 23.03.26 25.03.26 - - - 23.03.26 27.03.26
_ Min-Zeit 06:14 05:48 05:38 15:24 06:25 - - - 00:00 00:02
Minimum _ -0,5 °C -1,7 °C -4,4 °C 46 % 999,9 hPa - - - 0,0 km/h (0 Bft) 11,11 %
Max-Datum _ 23.03.26 23.03.26 23.03.26 28.03.26 29.03.26 28.03.26 23.03.26 26.03.26 26.03.26 23.03.26
_ Max-Zeit 14:10 11:40 11:40 09:52 10:22 09:00 12:10 12:38 14:36 00:46
Maximum _ 18,3 °C 26,1 °C 19,4 °C 98 % 1030,1 hPa 2,4 l/m² 0,08 h 912 W/m² 70,8 km/h
N-NW (8 Bft)
100,00 %
Durchschnitt _ 7,8 °C 8,5 °C 4,0 °C 77 % 1017,9 hPa #18,2 l/m² #38:22 h 239 W/m² 13,4 km/h (3 Bft) 97,66 %
© 2026 W. Hausmann